アンタナナリボ の空港の天気 - METARとTAF

イヴァト空港(アンタナナリボ) ( FMMI / TNR ) - マダガスカル アンタナナリボ
飛行場実況気象(Metar)
観測時間12/10 08:00 EAT (12/10 05:00 UTC)
風向・風速東南東 3m/s
視程7000m
天気現象
少しの雲 雲底高度 520m
気温21℃
湿度73%
気圧1021hPa
METARFMMI 100500Z 12005KT 080V170 7000 FEW017 21/16 Q1021 NOSIG
過去の天気等 Google飛行場航空写真 Wunderground天気予報

過去48時間のMETAR

飛行場予報(TAF)
発表時間: -
10日11時 EAT ~ 10日14時 EAT に徐々に
全天の4割程度の積乱雲 雲底高度 610m
全天の4割程度の雲 雲底高度 700m
10日15時 EAT ~ 10日21時 EAT に 確率 30% で一時的に
視程4500m
天気現象雷雨
10日21時 EAT ~ 10日24時 EAT に徐々に
風向・風速不定 2m/s
全天の4割程度の雲 雲底高度 520m
全天の4割程度の雲 雲底高度 610m
11日3時 EAT から 確率 40% で
視程1500m
天気現象もや
全天の4割程度の雲 雲底高度 90m
TAF
FMMI 092300Z 1000/1106 10010KT 9999 FEW017 BKN020
BECMG 1008/1011 SCT020CB SCT023
PROB30 TEMPO 1012/1018 4500 TSRA
BECMG 1018/1021 VRB03KT SCT017 SCT020
PROB40 1100/1106 1500 BR SCT003